sensor_id;sensor_type;location;lat;lon;timestamp;P1;durP1;ratioP1;P2;durP2;ratioP2
11078;SDS011;5592;49.234;7.268;2024-02-04T00:00:42;2.30;;;2.10;;
11078;SDS011;5592;49.234;7.268;2024-02-04T00:03:08;2.40;;;2.10;;
11078;SDS011;5592;49.234;7.268;2024-02-04T00:05:33;1.80;;;1.70;;
11078;SDS011;5592;49.234;7.268;2024-02-04T00:07:59;2.83;;;2.23;;
11078;SDS011;5592;49.234;7.268;2024-02-04T00:10:24;2.93;;;2.60;;
11078;SDS011;5592;49.234;7.268;2024-02-04T00:12:51;2.40;;;1.90;;
11078;SDS011;5592;49.234;7.268;2024-02-04T00:15:17;3.30;;;2.77;;
11078;SDS011;5592;49.234;7.268;2024-02-04T00:17:42;2.00;;;1.83;;
11078;SDS011;5592;49.234;7.268;2024-02-04T00:20:08;2.30;;;2.10;;
11078;SDS011;5592;49.234;7.268;2024-02-04T00:22:34;3.00;;;2.60;;
11078;SDS011;5592;49.234;7.268;2024-02-04T00:25:00;2.77;;;2.50;;
11078;SDS011;5592;49.234;7.268;2024-02-04T00:27:35;4.53;;;3.00;;
11078;SDS011;5592;49.234;7.268;2024-02-04T00:30:02;3.13;;;2.60;;
11078;SDS011;5592;49.234;7.268;2024-02-04T00:32:29;2.43;;;2.07;;
11078;SDS011;5592;49.234;7.268;2024-02-04T00:34:54;3.03;;;2.73;;
11078;SDS011;5592;49.234;7.268;2024-02-04T00:37:20;3.70;;;2.57;;
11078;SDS011;5592;49.234;7.268;2024-02-04T00:39:46;2.90;;;2.50;;
11078;SDS011;5592;49.234;7.268;2024-02-04T00:42:11;3.13;;;2.63;;
11078;SDS011;5592;49.234;7.268;2024-02-04T00:44:37;3.00;;;2.50;;
11078;SDS011;5592;49.234;7.268;2024-02-04T00:47:02;3.23;;;2.40;;
11078;SDS011;5592;49.234;7.268;2024-02-04T00:49:28;2.93;;;2.63;;
11078;SDS011;5592;49.234;7.268;2024-02-04T00:51:53;2.63;;;2.43;;
11078;SDS011;5592;49.234;7.268;2024-02-04T00:54:19;5.83;;;2.80;;
11078;SDS011;5592;49.234;7.268;2024-02-04T00:56:45;2.73;;;2.53;;
11078;SDS011;5592;49.234;7.268;2024-02-04T00:59:10;2.83;;;2.60;;
11078;SDS011;5592;49.234;7.268;2024-02-04T01:01:37;5.50;;;2.80;;
11078;SDS011;5592;49.234;7.268;2024-02-04T01:04:02;3.33;;;2.80;;
11078;SDS011;5592;49.234;7.268;2024-02-04T01:06:28;3.63;;;2.53;;
11078;SDS011;5592;49.234;7.268;2024-02-04T01:08:55;2.50;;;2.30;;
11078;SDS011;5592;49.234;7.268;2024-02-04T01:11:23;3.40;;;2.40;;
11078;SDS011;5592;49.234;7.268;2024-02-04T01:13:49;2.70;;;2.50;;
11078;SDS011;5592;49.234;7.268;2024-02-04T01:16:14;2.30;;;2.10;;
11078;SDS011;5592;49.234;7.268;2024-02-04T01:18:40;2.87;;;2.00;;
11078;SDS011;5592;49.234;7.268;2024-02-04T01:21:06;2.83;;;2.53;;
11078;SDS011;5592;49.234;7.268;2024-02-04T01:23:31;3.00;;;1.97;;
11078;SDS011;5592;49.234;7.268;2024-02-04T01:25:57;2.10;;;1.90;;
11078;SDS011;5592;49.234;7.268;2024-02-04T01:28:22;2.20;;;1.93;;
11078;SDS011;5592;49.234;7.268;2024-02-04T01:30:48;2.40;;;1.90;;
11078;SDS011;5592;49.234;7.268;2024-02-04T01:33:13;2.10;;;1.80;;
11078;SDS011;5592;49.234;7.268;2024-02-04T01:35:39;2.57;;;2.07;;
11078;SDS011;5592;49.234;7.268;2024-02-04T01:38:04;1.97;;;1.87;;
11078;SDS011;5592;49.234;7.268;2024-02-04T01:40:30;3.50;;;2.00;;
11078;SDS011;5592;49.234;7.268;2024-02-04T01:42:55;2.90;;;1.80;;
11078;SDS011;5592;49.234;7.268;2024-02-04T01:45:21;2.43;;;1.87;;
11078;SDS011;5592;49.234;7.268;2024-02-04T01:47:47;1.70;;;1.60;;
11078;SDS011;5592;49.234;7.268;2024-02-04T01:50:13;1.83;;;1.73;;
11078;SDS011;5592;49.234;7.268;2024-02-04T01:52:40;2.50;;;1.57;;
11078;SDS011;5592;49.234;7.268;2024-02-04T01:55:07;2.00;;;1.80;;
11078;SDS011;5592;49.234;7.268;2024-02-04T01:57:34;1.70;;;1.60;;
11078;SDS011;5592;49.234;7.268;2024-02-04T02:00:00;2.90;;;2.07;;
11078;SDS011;5592;49.234;7.268;2024-02-04T02:02:25;1.70;;;1.60;;
11078;SDS011;5592;49.234;7.268;2024-02-04T02:04:51;1.83;;;1.73;;
11078;SDS011;5592;49.234;7.268;2024-02-04T02:07:17;2.27;;;1.80;;
11078;SDS011;5592;49.234;7.268;2024-02-04T02:09:46;3.70;;;2.33;;
11078;SDS011;5592;49.234;7.268;2024-02-04T02:12:18;1.87;;;1.70;;
11078;SDS011;5592;49.234;7.268;2024-02-04T02:14:59;2.57;;;2.20;;
11078;SDS011;5592;49.234;7.268;2024-02-04T02:17:33;1.77;;;1.67;;
11078;SDS011;5592;49.234;7.268;2024-02-04T02:20:30;2.13;;;1.77;;
11078;SDS011;5592;49.234;7.268;2024-02-04T02:23:07;2.23;;;1.97;;
11078;SDS011;5592;49.234;7.268;2024-02-04T02:25:37;2.60;;;2.40;;
11078;SDS011;5592;49.234;7.268;2024-02-04T02:28:04;2.53;;;1.70;;
11078;SDS011;5592;49.234;7.268;2024-02-04T02:30:32;2.37;;;2.17;;
11078;SDS011;5592;49.234;7.268;2024-02-04T02:32:57;2.10;;;2.00;;
11078;SDS011;5592;49.234;7.268;2024-02-04T02:35:23;2.90;;;2.30;;
11078;SDS011;5592;49.234;7.268;2024-02-04T02:37:55;2.60;;;2.40;;
11078;SDS011;5592;49.234;7.268;2024-02-04T02:40:36;5.57;;;2.00;;
11078;SDS011;5592;49.234;7.268;2024-02-04T02:43:06;2.30;;;2.10;;
11078;SDS011;5592;49.234;7.268;2024-02-04T02:45:36;1.87;;;1.70;;
11078;SDS011;5592;49.234;7.268;2024-02-04T02:48:04;2.83;;;2.00;;
11078;SDS011;5592;49.234;7.268;2024-02-04T02:50:31;1.83;;;1.73;;
11078;SDS011;5592;49.234;7.268;2024-02-04T02:52:56;2.20;;;1.97;;
11078;SDS011;5592;49.234;7.268;2024-02-04T02:55:22;2.57;;;1.30;;
11078;SDS011;5592;49.234;7.268;2024-02-04T02:57:47;2.43;;;2.23;;
11078;SDS011;5592;49.234;7.268;2024-02-04T03:00:13;2.53;;;2.33;;
11078;SDS011;5592;49.234;7.268;2024-02-04T03:02:39;2.10;;;1.90;;
11078;SDS011;5592;49.234;7.268;2024-02-04T03:05:04;2.40;;;2.20;;
11078;SDS011;5592;49.234;7.268;2024-02-04T03:07:30;3.93;;;2.03;;
11078;SDS011;5592;49.234;7.268;2024-02-04T03:09:56;3.97;;;2.57;;
11078;SDS011;5592;49.234;7.268;2024-02-04T03:12:21;2.77;;;1.83;;
11078;SDS011;5592;49.234;7.268;2024-02-04T03:14:47;2.90;;;2.60;;
11078;SDS011;5592;49.234;7.268;2024-02-04T03:17:12;2.33;;;2.00;;
11078;SDS011;5592;49.234;7.268;2024-02-04T03:19:38;2.30;;;1.90;;
11078;SDS011;5592;49.234;7.268;2024-02-04T03:22:04;2.50;;;2.20;;
11078;SDS011;5592;49.234;7.268;2024-02-04T03:24:29;2.60;;;2.40;;
11078;SDS011;5592;49.234;7.268;2024-02-04T03:26:55;3.10;;;2.57;;
11078;SDS011;5592;49.234;7.268;2024-02-04T03:29:20;2.33;;;2.13;;
11078;SDS011;5592;49.234;7.268;2024-02-04T03:31:46;2.63;;;2.23;;
11078;SDS011;5592;49.234;7.268;2024-02-04T03:34:11;2.67;;;2.47;;
11078;SDS011;5592;49.234;7.268;2024-02-04T03:36:37;5.07;;;2.50;;
11078;SDS011;5592;49.234;7.268;2024-02-04T03:39:05;2.43;;;2.23;;
11078;SDS011;5592;49.234;7.268;2024-02-04T03:41:31;2.57;;;2.23;;
11078;SDS011;5592;49.234;7.268;2024-02-04T03:43:56;3.60;;;2.50;;
11078;SDS011;5592;49.234;7.268;2024-02-04T03:46:22;2.63;;;2.23;;
11078;SDS011;5592;49.234;7.268;2024-02-04T03:48:47;3.90;;;2.20;;
11078;SDS011;5592;49.234;7.268;2024-02-04T03:51:16;3.30;;;3.00;;
11078;SDS011;5592;49.234;7.268;2024-02-04T03:53:43;3.10;;;2.80;;
11078;SDS011;5592;49.234;7.268;2024-02-04T03:56:09;2.27;;;2.07;;
11078;SDS011;5592;49.234;7.268;2024-02-04T03:58:34;4.10;;;2.90;;
11078;SDS011;5592;49.234;7.268;2024-02-04T04:01:00;4.73;;;2.97;;
11078;SDS011;5592;49.234;7.268;2024-02-04T04:03:25;2.30;;;2.10;;
11078;SDS011;5592;49.234;7.268;2024-02-04T04:05:52;3.07;;;2.77;;
11078;SDS011;5592;49.234;7.268;2024-02-04T04:08:18;2.60;;;2.20;;
11078;SDS011;5592;49.234;7.268;2024-02-04T04:10:44;3.10;;;2.40;;
11078;SDS011;5592;49.234;7.268;2024-02-04T04:13:10;4.30;;;2.20;;
11078;SDS011;5592;49.234;7.268;2024-02-04T04:15:37;3.17;;;2.37;;
11078;SDS011;5592;49.234;7.268;2024-02-04T04:18:02;3.70;;;2.13;;
11078;SDS011;5592;49.234;7.268;2024-02-04T04:20:28;4.10;;;2.57;;
11078;SDS011;5592;49.234;7.268;2024-02-04T04:22:54;2.97;;;2.47;;
11078;SDS011;5592;49.234;7.268;2024-02-04T04:25:19;3.83;;;2.90;;
11078;SDS011;5592;49.234;7.268;2024-02-04T04:27:45;3.60;;;2.70;;
11078;SDS011;5592;49.234;7.268;2024-02-04T04:30:11;3.20;;;2.47;;
11078;SDS011;5592;49.234;7.268;2024-02-04T04:32:37;2.73;;;2.30;;
11078;SDS011;5592;49.234;7.268;2024-02-04T04:35:03;3.70;;;2.00;;
11078;SDS011;5592;49.234;7.268;2024-02-04T04:37:29;2.60;;;2.40;;
11078;SDS011;5592;49.234;7.268;2024-02-04T04:39:54;2.70;;;2.30;;
11078;SDS011;5592;49.234;7.268;2024-02-04T04:42:20;3.00;;;2.50;;
11078;SDS011;5592;49.234;7.268;2024-02-04T04:44:46;3.60;;;2.20;;
11078;SDS011;5592;49.234;7.268;2024-02-04T04:47:11;3.47;;;2.90;;
11078;SDS011;5592;49.234;7.268;2024-02-04T04:49:37;2.37;;;2.07;;
11078;SDS011;5592;49.234;7.268;2024-02-04T04:52:03;2.83;;;2.13;;
11078;SDS011;5592;49.234;7.268;2024-02-04T04:54:28;4.73;;;2.27;;
11078;SDS011;5592;49.234;7.268;2024-02-04T04:56:54;2.50;;;2.30;;
11078;SDS011;5592;49.234;7.268;2024-02-04T04:59:20;2.50;;;1.87;;
11078;SDS011;5592;49.234;7.268;2024-02-04T05:01:45;2.30;;;2.07;;
11078;SDS011;5592;49.234;7.268;2024-02-04T05:04:12;2.10;;;1.90;;
11078;SDS011;5592;49.234;7.268;2024-02-04T05:06:37;2.10;;;1.70;;
11078;SDS011;5592;49.234;7.268;2024-02-04T05:09:03;2.40;;;2.20;;
11078;SDS011;5592;49.234;7.268;2024-02-04T05:11:28;2.20;;;2.00;;
11078;SDS011;5592;49.234;7.268;2024-02-04T05:13:54;2.67;;;2.20;;
11078;SDS011;5592;49.234;7.268;2024-02-04T05:16:20;2.80;;;1.80;;
11078;SDS011;5592;49.234;7.268;2024-02-04T05:18:45;3.50;;;2.17;;
11078;SDS011;5592;49.234;7.268;2024-02-04T05:21:11;2.03;;;1.70;;
11078;SDS011;5592;49.234;7.268;2024-02-04T05:23:37;2.87;;;1.83;;
11078;SDS011;5592;49.234;7.268;2024-02-04T05:26:03;2.03;;;1.77;;
11078;SDS011;5592;49.234;7.268;2024-02-04T05:28:29;2.10;;;1.47;;
11078;SDS011;5592;49.234;7.268;2024-02-04T05:30:55;3.17;;;1.73;;
11078;SDS011;5592;49.234;7.268;2024-02-04T05:33:21;1.67;;;1.57;;
11078;SDS011;5592;49.234;7.268;2024-02-04T05:35:46;2.20;;;1.60;;
11078;SDS011;5592;49.234;7.268;2024-02-04T05:38:12;2.53;;;1.80;;
11078;SDS011;5592;49.234;7.268;2024-02-04T05:40:37;1.70;;;1.53;;
11078;SDS011;5592;49.234;7.268;2024-02-04T05:43:03;1.90;;;1.53;;
11078;SDS011;5592;49.234;7.268;2024-02-04T05:45:32;2.00;;;1.73;;
11078;SDS011;5592;49.234;7.268;2024-02-04T05:47:58;1.50;;;1.40;;
11078;SDS011;5592;49.234;7.268;2024-02-04T05:50:23;2.20;;;1.60;;
11078;SDS011;5592;49.234;7.268;2024-02-04T05:52:49;3.20;;;1.50;;
11078;SDS011;5592;49.234;7.268;2024-02-04T05:55:14;1.93;;;1.70;;
11078;SDS011;5592;49.234;7.268;2024-02-04T05:57:40;2.37;;;1.87;;
11078;SDS011;5592;49.234;7.268;2024-02-04T06:00:06;1.60;;;1.50;;
11078;SDS011;5592;49.234;7.268;2024-02-04T06:02:35;3.30;;;1.60;;
11078;SDS011;5592;49.234;7.268;2024-02-04T06:05:01;1.53;;;1.43;;
11078;SDS011;5592;49.234;7.268;2024-02-04T06:07:27;2.20;;;1.73;;
11078;SDS011;5592;49.234;7.268;2024-02-04T06:09:52;3.10;;;1.93;;
11078;SDS011;5592;49.234;7.268;2024-02-04T06:12:20;2.33;;;1.70;;
11078;SDS011;5592;49.234;7.268;2024-02-04T06:14:46;2.63;;;1.60;;
11078;SDS011;5592;49.234;7.268;2024-02-04T06:17:11;2.07;;;1.50;;
11078;SDS011;5592;49.234;7.268;2024-02-04T06:19:37;2.10;;;1.77;;
11078;SDS011;5592;49.234;7.268;2024-02-04T06:22:03;2.30;;;2.10;;
11078;SDS011;5592;49.234;7.268;2024-02-04T06:24:28;3.13;;;2.20;;
11078;SDS011;5592;49.234;7.268;2024-02-04T06:26:54;3.73;;;2.20;;
11078;SDS011;5592;49.234;7.268;2024-02-04T06:29:19;2.10;;;1.90;;
11078;SDS011;5592;49.234;7.268;2024-02-04T06:31:45;2.47;;;2.10;;
11078;SDS011;5592;49.234;7.268;2024-02-04T06:34:13;3.20;;;2.27;;
11078;SDS011;5592;49.234;7.268;2024-02-04T06:36:41;2.80;;;2.50;;
11078;SDS011;5592;49.234;7.268;2024-02-04T06:39:09;3.07;;;2.73;;
11078;SDS011;5592;49.234;7.268;2024-02-04T06:41:34;4.47;;;2.80;;
11078;SDS011;5592;49.234;7.268;2024-02-04T06:44:00;4.53;;;3.37;;
11078;SDS011;5592;49.234;7.268;2024-02-04T06:46:27;4.80;;;2.87;;
11078;SDS011;5592;49.234;7.268;2024-02-04T06:48:53;5.27;;;3.43;;
11078;SDS011;5592;49.234;7.268;2024-02-04T06:51:19;3.13;;;2.60;;
11078;SDS011;5592;49.234;7.268;2024-02-04T06:53:45;4.53;;;3.23;;
11078;SDS011;5592;49.234;7.268;2024-02-04T06:56:11;7.73;;;3.60;;
11078;SDS011;5592;49.234;7.268;2024-02-04T06:58:40;4.10;;;2.37;;
11078;SDS011;5592;49.234;7.268;2024-02-04T07:01:06;2.90;;;2.60;;
11078;SDS011;5592;49.234;7.268;2024-02-04T07:03:31;3.47;;;2.77;;
11078;SDS011;5592;49.234;7.268;2024-02-04T07:05:58;4.30;;;2.90;;
11078;SDS011;5592;49.234;7.268;2024-02-04T07:08:23;4.37;;;2.70;;
11078;SDS011;5592;49.234;7.268;2024-02-04T07:10:49;4.37;;;2.57;;
11078;SDS011;5592;49.234;7.268;2024-02-04T07:13:15;3.20;;;2.80;;
11078;SDS011;5592;49.234;7.268;2024-02-04T07:15:40;2.50;;;2.30;;
11078;SDS011;5592;49.234;7.268;2024-02-04T07:18:06;3.33;;;2.33;;
11078;SDS011;5592;49.234;7.268;2024-02-04T07:20:31;2.43;;;2.17;;
11078;SDS011;5592;49.234;7.268;2024-02-04T07:22:57;2.90;;;2.13;;
11078;SDS011;5592;49.234;7.268;2024-02-04T07:25:22;2.47;;;2.27;;
11078;SDS011;5592;49.234;7.268;2024-02-04T07:27:48;2.40;;;2.13;;
11078;SDS011;5592;49.234;7.268;2024-02-04T07:30:14;2.13;;;1.90;;
11078;SDS011;5592;49.234;7.268;2024-02-04T07:32:40;3.10;;;2.60;;
11078;SDS011;5592;49.234;7.268;2024-02-04T07:35:05;2.60;;;2.23;;
11078;SDS011;5592;49.234;7.268;2024-02-04T07:37:31;2.20;;;1.73;;
11078;SDS011;5592;49.234;7.268;2024-02-04T07:39:57;2.03;;;1.67;;
11078;SDS011;5592;49.234;7.268;2024-02-04T07:42:23;4.00;;;2.40;;
11078;SDS011;5592;49.234;7.268;2024-02-04T07:44:49;3.30;;;2.20;;
11078;SDS011;5592;49.234;7.268;2024-02-04T07:47:14;2.50;;;2.03;;
11078;SDS011;5592;49.234;7.268;2024-02-04T07:49:41;3.27;;;2.87;;
11078;SDS011;5592;49.234;7.268;2024-02-04T07:52:06;2.20;;;2.00;;
11078;SDS011;5592;49.234;7.268;2024-02-04T07:54:32;2.43;;;2.17;;
11078;SDS011;5592;49.234;7.268;2024-02-04T07:56:57;3.20;;;2.20;;
11078;SDS011;5592;49.234;7.268;2024-02-04T07:59:24;2.60;;;2.10;;
11078;SDS011;5592;49.234;7.268;2024-02-04T08:01:49;2.57;;;2.17;;
11078;SDS011;5592;49.234;7.268;2024-02-04T08:04:15;4.05;;;2.50;;
11078;SDS011;5592;49.234;7.268;2024-02-04T08:06:40;3.30;;;2.60;;
11078;SDS011;5592;49.234;7.268;2024-02-04T08:09:06;2.63;;;2.43;;
11078;SDS011;5592;49.234;7.268;2024-02-04T08:11:32;5.03;;;2.70;;
11078;SDS011;5592;49.234;7.268;2024-02-04T08:13:57;3.23;;;2.50;;
11078;SDS011;5592;49.234;7.268;2024-02-04T08:16:25;4.80;;;2.90;;
11078;SDS011;5592;49.234;7.268;2024-02-04T08:18:51;4.10;;;2.93;;
11078;SDS011;5592;49.234;7.268;2024-02-04T08:21:16;4.43;;;3.50;;
11078;SDS011;5592;49.234;7.268;2024-02-04T08:23:43;5.27;;;3.47;;
11078;SDS011;5592;49.234;7.268;2024-02-04T08:26:09;3.93;;;3.10;;
11078;SDS011;5592;49.234;7.268;2024-02-04T08:28:35;4.23;;;2.97;;
11078;SDS011;5592;49.234;7.268;2024-02-04T08:31:01;4.83;;;3.47;;
11078;SDS011;5592;49.234;7.268;2024-02-04T08:33:26;4.70;;;3.30;;
11078;SDS011;5592;49.234;7.268;2024-02-04T08:35:53;3.50;;;2.90;;
11078;SDS011;5592;49.234;7.268;2024-02-04T08:38:18;4.43;;;3.70;;
11078;SDS011;5592;49.234;7.268;2024-02-04T08:40:44;6.33;;;3.67;;
11078;SDS011;5592;49.234;7.268;2024-02-04T08:43:10;4.50;;;3.83;;
11078;SDS011;5592;49.234;7.268;2024-02-04T08:45:35;4.13;;;3.30;;
11078;SDS011;5592;49.234;7.268;2024-02-04T08:48:01;4.90;;;3.23;;
11078;SDS011;5592;49.234;7.268;2024-02-04T08:50:27;3.37;;;2.93;;
11078;SDS011;5592;49.234;7.268;2024-02-04T08:52:53;5.13;;;3.73;;
11078;SDS011;5592;49.234;7.268;2024-02-04T08:55:19;4.30;;;3.77;;
11078;SDS011;5592;49.234;7.268;2024-02-04T08:57:47;6.73;;;4.20;;
11078;SDS011;5592;49.234;7.268;2024-02-04T09:00:13;5.90;;;3.93;;
11078;SDS011;5592;49.234;7.268;2024-02-04T09:02:40;9.30;;;4.70;;
11078;SDS011;5592;49.234;7.268;2024-02-04T09:05:06;5.40;;;4.00;;
11078;SDS011;5592;49.234;7.268;2024-02-04T09:07:32;6.87;;;4.53;;
11078;SDS011;5592;49.234;7.268;2024-02-04T09:09:57;6.77;;;4.60;;
11078;SDS011;5592;49.234;7.268;2024-02-04T09:12:23;7.50;;;5.77;;
11078;SDS011;5592;49.234;7.268;2024-02-04T09:14:48;7.57;;;5.47;;
11078;SDS011;5592;49.234;7.268;2024-02-04T09:17:14;5.97;;;5.20;;
11078;SDS011;5592;49.234;7.268;2024-02-04T09:19:39;7.17;;;4.87;;
11078;SDS011;5592;49.234;7.268;2024-02-04T09:22:05;7.37;;;4.83;;
11078;SDS011;5592;49.234;7.268;2024-02-04T09:24:31;6.03;;;4.93;;
11078;SDS011;5592;49.234;7.268;2024-02-04T09:26:57;9.30;;;5.77;;
11078;SDS011;5592;49.234;7.268;2024-02-04T09:29:22;7.40;;;5.30;;
11078;SDS011;5592;49.234;7.268;2024-02-04T09:31:48;6.77;;;5.30;;
11078;SDS011;5592;49.234;7.268;2024-02-04T09:34:16;10.10;;;5.30;;
11078;SDS011;5592;49.234;7.268;2024-02-04T09:36:41;6.57;;;4.87;;
11078;SDS011;5592;49.234;7.268;2024-02-04T09:39:08;8.00;;;5.03;;
11078;SDS011;5592;49.234;7.268;2024-02-04T09:41:33;8.12;;;4.86;;
11078;SDS011;5592;49.234;7.268;2024-02-04T09:43:59;10.17;;;4.70;;
11078;SDS011;5592;49.234;7.268;2024-02-04T09:46:28;5.73;;;3.93;;
11078;SDS011;5592;49.234;7.268;2024-02-04T09:48:54;7.80;;;4.17;;
11078;SDS011;5592;49.234;7.268;2024-02-04T09:51:21;6.60;;;4.50;;
11078;SDS011;5592;49.234;7.268;2024-02-04T09:53:51;6.87;;;5.37;;
11078;SDS011;5592;49.234;7.268;2024-02-04T09:56:18;5.60;;;4.50;;
11078;SDS011;5592;49.234;7.268;2024-02-04T09:58:47;8.70;;;4.80;;
11078;SDS011;5592;49.234;7.268;2024-02-04T10:01:13;6.37;;;4.77;;
11078;SDS011;5592;49.234;7.268;2024-02-04T10:03:40;6.80;;;4.30;;
11078;SDS011;5592;49.234;7.268;2024-02-04T10:06:06;5.30;;;4.77;;
11078;SDS011;5592;49.234;7.268;2024-02-04T10:08:32;6.93;;;5.20;;
11078;SDS011;5592;49.234;7.268;2024-02-04T10:11:00;5.17;;;4.53;;
11078;SDS011;5592;49.234;7.268;2024-02-04T10:13:25;7.37;;;5.30;;
11078;SDS011;5592;49.234;7.268;2024-02-04T10:15:51;9.13;;;5.53;;
11078;SDS011;5592;49.234;7.268;2024-02-04T10:18:20;12.63;;;5.63;;
11078;SDS011;5592;49.234;7.268;2024-02-04T10:20:46;6.07;;;4.57;;
11078;SDS011;5592;49.234;7.268;2024-02-04T10:23:12;5.93;;;5.10;;
11078;SDS011;5592;49.234;7.268;2024-02-04T10:25:37;6.90;;;5.07;;
11078;SDS011;5592;49.234;7.268;2024-02-04T10:28:03;4.43;;;3.90;;
11078;SDS011;5592;49.234;7.268;2024-02-04T10:30:29;4.87;;;3.67;;
11078;SDS011;5592;49.234;7.268;2024-02-04T10:32:55;4.83;;;4.30;;
11078;SDS011;5592;49.234;7.268;2024-02-04T10:35:21;5.70;;;3.90;;
11078;SDS011;5592;49.234;7.268;2024-02-04T10:37:49;3.80;;;3.37;;
11078;SDS011;5592;49.234;7.268;2024-02-04T10:40:15;4.57;;;4.03;;
11078;SDS011;5592;49.234;7.268;2024-02-04T10:42:42;4.03;;;3.47;;
11078;SDS011;5592;49.234;7.268;2024-02-04T10:45:09;4.37;;;3.67;;
11078;SDS011;5592;49.234;7.268;2024-02-04T10:47:38;9.20;;;3.90;;
11078;SDS011;5592;49.234;7.268;2024-02-04T10:50:05;3.27;;;2.97;;
11078;SDS011;5592;49.234;7.268;2024-02-04T10:52:38;4.10;;;3.33;;
11078;SDS011;5592;49.234;7.268;2024-02-04T10:55:08;3.20;;;2.90;;
11078;SDS011;5592;49.234;7.268;2024-02-04T10:57:34;3.50;;;3.00;;
11078;SDS011;5592;49.234;7.268;2024-02-04T11:00:01;4.40;;;3.37;;
11078;SDS011;5592;49.234;7.268;2024-02-04T11:02:33;4.50;;;3.50;;
11078;SDS011;5592;49.234;7.268;2024-02-04T11:05:00;3.70;;;2.83;;
11078;SDS011;5592;49.234;7.268;2024-02-04T11:07:29;4.20;;;3.50;;
11078;SDS011;5592;49.234;7.268;2024-02-04T11:09:58;2.70;;;2.50;;
11078;SDS011;5592;49.234;7.268;2024-02-04T11:12:23;3.67;;;2.97;;
11078;SDS011;5592;49.234;7.268;2024-02-04T11:14:51;4.93;;;2.27;;
11078;SDS011;5592;49.234;7.268;2024-02-04T11:23:22;1.93;;;1.83;;
11078;SDS011;5592;49.234;7.268;2024-02-04T11:26:02;1.90;;;1.77;;
11078;SDS011;5592;49.234;7.268;2024-02-04T11:28:29;2.07;;;1.40;;
11078;SDS011;5592;49.234;7.268;2024-02-04T11:30:56;1.60;;;1.50;;
11078;SDS011;5592;49.234;7.268;2024-02-04T11:33:22;1.93;;;1.50;;
11078;SDS011;5592;49.234;7.268;2024-02-04T11:36:03;1.70;;;1.17;;
11078;SDS011;5592;49.234;7.268;2024-02-04T11:38:36;1.77;;;1.40;;
11078;SDS011;5592;49.234;7.268;2024-02-04T11:41:02;2.07;;;1.30;;
11078;SDS011;5592;49.234;7.268;2024-02-04T11:43:29;2.90;;;1.20;;
11078;SDS011;5592;49.234;7.268;2024-02-04T11:45:57;1.13;;;1.03;;
11078;SDS011;5592;49.234;7.268;2024-02-04T11:48:28;1.60;;;1.07;;
11078;SDS011;5592;49.234;7.268;2024-02-04T11:50:58;2.40;;;1.10;;
11078;SDS011;5592;49.234;7.268;2024-02-04T11:53:28;1.10;;;1.00;;
11078;SDS011;5592;49.234;7.268;2024-02-04T11:55:57;1.23;;;1.10;;
11078;SDS011;5592;49.234;7.268;2024-02-04T11:58:23;1.60;;;1.03;;
11078;SDS011;5592;49.234;7.268;2024-02-04T12:00:50;1.37;;;1.27;;
11078;SDS011;5592;49.234;7.268;2024-02-04T12:03:27;1.80;;;0.90;;
11078;SDS011;5592;49.234;7.268;2024-02-04T12:05:57;3.53;;;1.40;;
11078;SDS011;5592;49.234;7.268;2024-02-04T12:08:24;1.30;;;1.20;;
11078;SDS011;5592;49.234;7.268;2024-02-04T12:10:52;1.87;;;1.20;;
11078;SDS011;5592;49.234;7.268;2024-02-04T12:13:18;1.63;;;1.10;;
11078;SDS011;5592;49.234;7.268;2024-02-04T12:15:44;2.40;;;1.53;;
11078;SDS011;5592;49.234;7.268;2024-02-04T12:18:10;1.13;;;1.00;;
11078;SDS011;5592;49.234;7.268;2024-02-04T12:20:39;1.90;;;1.10;;
11078;SDS011;5592;49.234;7.268;2024-02-04T12:23:05;1.23;;;1.13;;
11078;SDS011;5592;49.234;7.268;2024-02-04T12:25:32;1.60;;;1.50;;
11078;SDS011;5592;49.234;7.268;2024-02-04T12:27:58;1.37;;;1.20;;
11078;SDS011;5592;49.234;7.268;2024-02-04T12:30:24;1.53;;;1.43;;
11078;SDS011;5592;49.234;7.268;2024-02-04T12:32:57;1.63;;;1.53;;
11078;SDS011;5592;49.234;7.268;2024-02-04T12:35:23;4.50;;;2.00;;
11078;SDS011;5592;49.234;7.268;2024-02-04T12:37:54;1.93;;;1.77;;
11078;SDS011;5592;49.234;7.268;2024-02-04T12:40:22;2.43;;;1.80;;
11078;SDS011;5592;49.234;7.268;2024-02-04T12:42:53;2.00;;;1.53;;
11078;SDS011;5592;49.234;7.268;2024-02-04T12:45:26;1.80;;;1.67;;
11078;SDS011;5592;49.234;7.268;2024-02-04T12:47:53;3.80;;;1.80;;
11078;SDS011;5592;49.234;7.268;2024-02-04T12:50:22;2.40;;;1.80;;
11078;SDS011;5592;49.234;7.268;2024-02-04T12:52:49;2.77;;;2.30;;
11078;SDS011;5592;49.234;7.268;2024-02-04T12:55:32;1.80;;;1.70;;
11078;SDS011;5592;49.234;7.268;2024-02-04T12:58:08;2.30;;;2.10;;
11078;SDS011;5592;49.234;7.268;2024-02-04T13:00:37;3.73;;;1.70;;
11078;SDS011;5592;49.234;7.268;2024-02-04T13:03:04;1.70;;;1.60;;
11078;SDS011;5592;49.234;7.268;2024-02-04T13:05:31;1.93;;;1.60;;
11078;SDS011;5592;49.234;7.268;2024-02-04T13:07:58;1.63;;;1.53;;
11078;SDS011;5592;49.234;7.268;2024-02-04T13:10:27;2.50;;;1.97;;
11078;SDS011;5592;49.234;7.268;2024-02-04T13:15:27;3.30;;;2.00;;
11078;SDS011;5592;49.234;7.268;2024-02-04T13:17:53;1.70;;;1.60;;
11078;SDS011;5592;49.234;7.268;2024-02-04T13:20:19;2.70;;;2.00;;
11078;SDS011;5592;49.234;7.268;2024-02-04T13:22:44;3.43;;;1.40;;
11078;SDS011;5592;49.234;7.268;2024-02-04T13:25:10;1.57;;;1.40;;
11078;SDS011;5592;49.234;7.268;2024-02-04T13:27:35;1.43;;;1.33;;
11078;SDS011;5592;49.234;7.268;2024-02-04T13:30:01;2.27;;;1.50;;
11078;SDS011;5592;49.234;7.268;2024-02-04T13:32:27;1.97;;;1.53;;
11078;SDS011;5592;49.234;7.268;2024-02-04T13:34:52;1.60;;;1.50;;
11078;SDS011;5592;49.234;7.268;2024-02-04T13:37:18;1.30;;;1.20;;
11078;SDS011;5592;49.234;7.268;2024-02-04T13:39:43;1.50;;;1.40;;
11078;SDS011;5592;49.234;7.268;2024-02-04T13:42:09;1.30;;;1.20;;
11078;SDS011;5592;49.234;7.268;2024-02-04T13:44:35;1.70;;;1.60;;
11078;SDS011;5592;49.234;7.268;2024-02-04T13:47:00;1.27;;;1.20;;
11078;SDS011;5592;49.234;7.268;2024-02-04T13:49:26;1.53;;;1.40;;
11078;SDS011;5592;49.234;7.268;2024-02-04T13:51:52;1.33;;;1.23;;
11078;SDS011;5592;49.234;7.268;2024-02-04T13:54:17;1.30;;;1.30;;
11078;SDS011;5592;49.234;7.268;2024-02-04T13:56:43;1.33;;;1.23;;
11078;SDS011;5592;49.234;7.268;2024-02-04T13:59:09;1.30;;;1.20;;
11078;SDS011;5592;49.234;7.268;2024-02-04T14:01:35;1.30;;;1.20;;
11078;SDS011;5592;49.234;7.268;2024-02-04T14:04:01;1.47;;;1.37;;
11078;SDS011;5592;49.234;7.268;2024-02-04T14:06:26;1.37;;;1.10;;
11078;SDS011;5592;49.234;7.268;2024-02-04T14:08:52;1.07;;;0.90;;
11078;SDS011;5592;49.234;7.268;2024-02-04T14:11:20;1.20;;;1.10;;
11078;SDS011;5592;49.234;7.268;2024-02-04T14:13:46;1.70;;;1.20;;
11078;SDS011;5592;49.234;7.268;2024-02-04T14:16:11;1.07;;;0.97;;
11078;SDS011;5592;49.234;7.268;2024-02-04T14:18:37;1.33;;;1.10;;
11078;SDS011;5592;49.234;7.268;2024-02-04T14:21:05;0.90;;;0.90;;
11078;SDS011;5592;49.234;7.268;2024-02-04T14:23:31;1.40;;;1.27;;
11078;SDS011;5592;49.234;7.268;2024-02-04T14:25:57;1.10;;;1.00;;
11078;SDS011;5592;49.234;7.268;2024-02-04T14:28:22;0.90;;;0.90;;
11078;SDS011;5592;49.234;7.268;2024-02-04T14:30:48;0.97;;;0.97;;
11078;SDS011;5592;49.234;7.268;2024-02-04T14:33:14;0.80;;;0.80;;
11078;SDS011;5592;49.234;7.268;2024-02-04T14:35:41;1.40;;;1.30;;
11078;SDS011;5592;49.234;7.268;2024-02-04T14:38:08;0.70;;;0.70;;
11078;SDS011;5592;49.234;7.268;2024-02-04T14:40:34;1.30;;;1.10;;
11078;SDS011;5592;49.234;7.268;2024-02-04T14:42:59;1.77;;;0.90;;
11078;SDS011;5592;49.234;7.268;2024-02-04T14:45:27;2.00;;;0.80;;
11078;SDS011;5592;49.234;7.268;2024-02-04T14:47:53;1.80;;;0.93;;
11078;SDS011;5592;49.234;7.268;2024-02-04T14:50:19;1.00;;;1.00;;
11078;SDS011;5592;49.234;7.268;2024-02-04T14:52:45;0.80;;;0.80;;
11078;SDS011;5592;49.234;7.268;2024-02-04T14:55:11;0.80;;;0.80;;
11078;SDS011;5592;49.234;7.268;2024-02-04T14:57:37;1.30;;;1.20;;
11078;SDS011;5592;49.234;7.268;2024-02-04T15:00:02;0.90;;;0.90;;
11078;SDS011;5592;49.234;7.268;2024-02-04T15:02:28;1.37;;;1.27;;
11078;SDS011;5592;49.234;7.268;2024-02-04T15:04:54;0.90;;;0.90;;